Résultats de la course

08 févr. 2020

Jogging du fonds des ails

LA HULPE

:
1081
:
ROMAIN PAUL

DOROTHEE CUPERS


# Type de course Dossard Nom Prénom Club Catégorie Temps
1 Grande 4004 PAUL ROMAIN JTP BLANCS GILETS M/20-29 00:41:39
2 Grande 4800 VAN ESPEN FABRICE TRAINING 7 -RIWA M/30-39 00:43:04
3 Grande 3107 DEBLANDER ROMAIN USBW ROAD TEAM M/20-29 00:43:27
4 Grande 89 DESCAMPE ARNAUD TRAINING 7 -RIWA M/30-39 00:43:49
5 Grande 5189 THIRIFAYS FRANCOIS TRAINING 7 -RIWA M/20-29 00:43:58
6 Grande 5264 VANHALST THOMAS M/20-29 00:44:06
7 Grande 921 VERSCHOREN BART M/40-49 00:44:26
8 Grande 572 PHILIPPE JEROME UTT M/40-49 00:44:41
9 Grande 2875 MATTHYS ALEXIS TEAM M&MS POWER M/30-39 00:44:47
10 Grande 2349 TAMIGNEAUX CEDRIC NAC M/30-39 00:45:39
11 Grande 4458 MOUREAU KEVIN TEAM M&MS POWER M/30-39 00:46:00
12 Grande 118 LEESTMANS ADRIEN USBW ROAD TEAM M/30-39 00:46:30
13 Grande 2328 PETRE MAXIME RCB M/30-39 00:46:36
14 Grande 5250 SAPIEHA NICOLAS MICHOTTE M/30-39 00:46:40
15 Grande 807 VANDERBECK YVES RONVAU M/50-59 00:46:50
16 Grande 5139 STEDMAN TIM M/40-49 00:46:55
17 Grande 496 RATINCKX JEAN-PHILIPPE TRAINING 7 -RIWA M/30-39 00:47:12
18 Grande 5476 BORLY QUENTIN MICHOTTE M/20-29 00:47:13
19 Grande 3906 VANDENBOSCH DIDIER BIN M/50-59 00:47:21
20 Grande 5465 INGELS TANGUY M/30-39 00:47:26
21 Grande 5276 BAUT DANNY DILBEEK M/40-49 00:47:35
22 Grande 5210 DELANNOY SEBASTIEN M/30-39 00:47:50
23 Grande 3037 GHILAIN OLIVIER KURISTO M/40-49 00:48:02
24 Grande 5188 DU BRULLE ARTHUR RCBT M/20-29 00:48:04
25 Grande 3468 RYCKMANS LOUIS TEAM M&MS POWER M/20-29 00:48:08
26 Grande 821 QUEVY KEVIN JET M/20-29 00:48:23
27 Grande 705 GOLDWASSER JONATHAN RCB M/30-39 00:48:28
28 Grande 5226 BEN AZZUZ RIDWAN M/40-49 00:48:39
29 Grande 5113 DE GREEF BENJAMIN ENJAMBEE M/15-19 00:48:51
30 Grande 765 BUIS QUENTIN BORN TO RUN M/30-39 00:49:07
31 Grande 768 VANDERLINDEN KOEN AXA TEAM M/30-39 00:49:14
32 Grande 160 VAN PARIJS PIERRE-EMMANUEL M/30-39 00:49:17
33 Grande 1183 LAHAYE VINCENT RUNNIN GREZ M/20-29 00:49:23
34 Grande 530 MAGIS ALVARIC TRAINING 7 -RIWA M/30-39 00:49:26
35 Grande 2457 MONTOISY ADRIEN TRAINING 7 -RIWA M/30-39 00:49:28
36 Grande 3339 KUBORN XAVIER M/40-49 00:49:29
37 Grande 4698 LOUVEAUX CORENTIN CS DYLE M/15-19 00:49:31
38 Grande 5432 KEMPINAIRE BERNARD FCHA M/40-49 00:49:35
39 Grande 2832 LELIEVRE THIERRY JOGGANS M/40-49 00:49:45
40 Grande 408 DESSY MICHAEL M/40-49 00:49:49
41 Grande 5170 TEIRBROOD BRUNO SBT M/30-39 00:49:52
42 Grande 3962 VAN DONGHEN PATRICE NAC M/30-39 00:49:53
43 Grande 5466 DE RIJDT MATHIEU M/20-29 00:49:55
44 Grande 2734 DERMIENS OLIVIER TEAM M&MS POWER M/50-59 00:49:57
45 Grande 4775 CUPERS DOROTHEE TRAINING 7 -RIWA F/30-39 00:50:01
46 Grande 238 VAUDOISEY PAUL RCB M/30-39 00:50:01
47 Grande 4803 SANCHEZ POSADA TOMAS CACE M/20-29 00:50:03
48 Grande 1612 BERNARD LOUIS NAC M/50-59 00:50:05
49 Grande 5253 MEINGUET DORIAN CEPAL M/30-39 00:50:07
50 Grande 964 DI VINCENZO PASCAL JAMES M/50-59 00:50:09
51 Grande 202 SLADE WILLIAM M/30-39 00:50:10
52 Grande 1922 VERMEERE DIDIER JET M/50-59 00:50:16
53 Grande 986 RICHARD PIERRE CS DYLE M/50-59 00:50:27
54 Grande 920 RECOUR LAURENT TRAINING 7 -RIWA M/50-59 00:50:42
55 Grande 355 FOBE ROMAIN CNSW M/15-19 00:50:47
56 Grande 4511 LO PRESTI ANTONI RCB M/40-49 00:51:01
57 Grande 2853 WEETS OLIVIER CEPAL M/40-49 00:51:07
58 Grande 243 LOUVEAUX SEBASTIEN CS DYLE M/40-49 00:51:09
59 Grande 757 VERBESSELT KEVIN HAC M/40-49 00:51:12
60 Grande 801 ADANT OLIVIER NSTT M/20-29 00:51:24
61 Grande 2362 THORE MARTIN FURALOPE M/50-59 00:51:25
62 Grande 187 STOCKMANS FRANCOIS RCB M/50-59 00:51:30
63 Grande 2117 VAN HORICK BRUNO JCPMF GENAPPE M/40-49 00:51:38
64 Grande 5282 LE FLOHIC ARNAUD M/30-39 00:51:42
65 Grande 3259 MARGHEM GILLES M/20-29 00:51:50
66 Grande 4852 SOENENS KEVIN M/40-49 00:51:53
67 Grande 5153 OBERT KEVIN M/30-39 00:51:58
68 Grande 3851 BAJA MIHAI RCB M/40-49 00:52:02
69 Grande 2324 GOFFE NICOLAS NAC M/30-39 00:52:03
70 Grande 5123 HECK ADRIEN ENJAMBEE M/20-29 00:52:05
71 Grande 1235 LABBE JEAN MARIE M/60-69 00:52:08
72 Grande 896 PAIROUX ALEXANDRE MICHOTTE M/20-29 00:52:09
73 Grande 5222 GILLES ALEXANDRE MICHOTTE M/20-29 00:52:13
74 Grande 810 COLLARD JOSE GAG M/60-69 00:52:19
75 Grande 808 OLLINGER AMANDINE TRAIN 7 F/20-29 00:52:32
76 Grande 3400 CNOCQUART SEBASTIEN JTP BLANCS GILETS M/40-49 00:52:35
77 Grande 5449 NESMAN OLIVIER MICHOTTE M/40-49 00:52:36
78 Grande 5181 WAROQUIER YVES BORN TO RUN M/50-59 00:52:40
79 Grande 2513 LEJEUNE LUDOVIC TRAINING 7 -RIWA M/40-49 00:52:59
80 Grande 843 FARBER NICOLAS M/50-59 00:53:00
81 Grande 942 LABBE THIBAUT M/30-39 00:53:03
82 Grande 5105 BRANLE DAVID LDLV M/50-59 00:53:03
83 Grande 1176 WILLAME THOMAS JAMES M/20-29 00:53:09
84 Grande 2635 DE MOOR AUDREY TRAINING 7 -RIWA F/30-39 00:53:12
85 Grande 2940 ABS DIMITRI M/30-39 00:53:16
86 Grande 3177 PETIT PASCAL CABW M/40-49 00:53:19
87 Grande 1005 GIORDANO JEROME M/20-29 00:53:22
88 Grande 5290 RUELLE JEAN MICHOTTE M/40-49 00:53:32
89 Grande 712 SCHREURS SEBASTIEN URBAN TRI TEAM M/40-49 00:53:39
90 Grande 3284 VAN DROOGENBROECK DIRK M/50-59 00:53:49
91 Grande 1353 WALRAVENS BRUNO JE COURS A INCOURT M/30-39 00:53:51
92 Grande 4908 NAVEAU THOMAS M/30-39 00:53:53
93 Grande 3007 DEPOUILLE HENRI-FRANCOIS NAC M/40-49 00:53:54
94 Grande 2342 QUINTELA DANIEL JET M/50-59 00:53:59
95 Grande 5168 VERMEERBERGEN JELLE MICHOTTE M/30-39 00:54:00
96 Grande 320 LAHAYE PHILIPPE RUNNIN GREZ M/50-59 00:54:02
97 Grande 2827 GOLANSKI ROBERT RCB M/40-49 00:54:05
98 Grande 5464 SANDERS BENJAMIN MICHOTTE M/30-39 00:54:10
99 Grande 1973 LOMBAERT SEBASTIEN RCB M/40-49 00:54:12
100 Grande 2758 VAN POUCKE CEDRIC M/30-39 00:54:15
101 Grande 4082 MARSIN GAETAN RCB M/40-49 00:54:18
102 Grande 601 TILMANS ANTOINE M/30-39 00:54:20
103 Grande 3217 VANDEN BROECK JIMMY TRAINING 7 -RIWA M/40-49 00:54:23
104 Grande 226 SLIMANI KARIM M/30-39 00:54:26
105 Grande 5392 ANCIAUX CAMILLE MICHOTTE F/30-39 00:54:28
106 Grande 2673 CHARLOTEAUX NICOLAS M/40-49 00:54:29
107 Grande 3580 LEGROS HARRY JAMES M/30-39 00:54:31
108 Grande 832 DENUIT DYLAN M/20-29 00:54:36
109 Grande 5439 PETITJEAN MATHIEU ENJAMBEE M/30-39 00:54:39
110 Grande 4535 DURVIAUX ALEXIS M/20-29 00:54:42
111 Grande 870 VERHOEVEN KRIS M/40-49 00:54:45
112 Grande 3473 FELLER JEROME USBW ROAD TEAM M/50-59 00:54:47
113 Grande 3965 GUILLERM DAVID RONVAU M/40-49 00:54:51
114 Grande 4068 MAKANGA EDGAR M/30-39 00:54:54
115 Grande 726 LOVENIERS MARC RCB-GAL M/40-49 00:54:55
116 Grande 4764 ALLARD LAURENT NAC M/40-49 00:54:56
117 Grande 5151 VERBESSELT TONY M/50-59 00:54:58
118 Grande 1432 LORGE JEAN MARC RONVAU M/50-59 00:55:00
119 Grande 5468 ISTER GUILLAUME M/20-29 00:55:00
120 Grande 4868 SEUTIN JEAN MARC M/50-59 00:55:02
121 Grande 4545 MOUREAU DORIAN TEAM M&MS POWER M/20-29 00:55:05
122 Grande 502 VAUDOISEY PASCAL RCB M/50-59 00:55:06
123 Grande 5186 SCUTENAIRE QUENTIN NAC M/20-29 00:55:13
124 Grande 2717 PIRENNE ANTOINE NAC M/40-49 00:55:15
125 Grande 5401 RATY HUGUES ESM M/40-49 00:55:18
126 Grande 2620 SEGHERS RONY DAC M/50-59 00:55:21
127 Grande 2683 DE PRINS JEAN-FRANCOIS TRAINING 7 -RIWA M/20-29 00:55:23
128 Grande 1450 DEKNOP ERIC JAMES M/40-49 00:55:24
129 Grande 867 GILLET ETIENNE RCB M/50-59 00:55:28
130 Grande 2087 DE MOOY JOHAN RCB M/40-49 00:55:31
131 Grande 2766 LUYCKFASSEEL YANN M/40-49 00:55:31
132 Grande 199 POTIER FREDERIC NAC M/40-49 00:55:32
133 Grande 1978 DE BIE WALTER HOOIBERGLOPERS M/60-69 00:55:35
134 Grande 3128 VINCKENBOSCH JEAN SEBASTIEN M/30-39 00:55:40
135 Grande 844 DEWULF GUILLAUME M/30-39 00:55:47
136 Grande 2810 VAN WYNENDAELE DIMITRY JOGGANS M/40-49 00:55:50
137 Grande 3636 LESOIL PHILIPPE ENJAMBEE M/50-59 00:55:51
138 Grande 3245 VAN LIERDE JEREMY M/30-39 00:55:53
139 Grande 5206 MAES JULIE SWIFT F/30-39 00:55:57
140 Grande 5180 DEHOUCK VIRGINIE ESM F/30-39 00:55:58
141 Grande 5273 NICOLAS CARLOS ENJAMBEE M/40-49 00:56:00
142 Grande 1832 MICHOTTE MARC MICHOTTE M/60-69 00:56:04
143 Grande 5204 CHRETIEN SOPHIE MICHOTTE F/30-39 00:56:06
144 Grande 828 CALOGNE LUNA JTP BLANCS GILETS F/20-29 00:56:07
145 Grande 2834 KASPRZYK KRZYSZTOF RCB M/40-49 00:56:19
146 Grande 215 DEVICK EMILY NAC F/40-49 00:56:22
147 Grande 1359 EVRARD MARC RCB M/50-59 00:56:23
148 Grande 1120 VERHELPEN OLIVIER TRAINING 7 -RIWA M/30-39 00:56:24
149 Grande 5199 KREMER RAPHAEL JOG GANS M/40-49 00:56:25
150 Grande 2647 LEROY ALEXIS M/20-29 00:56:27
151 Grande 492 COLPAERT PIERRE EMMANUEL M/20-29 00:56:30
152 Grande 993 CULLOP PAUL ENJAMBEE M/50-59 00:56:35
153 Grande 2216 DE SCHAETZEN CEDRIC RCB M/50-59 00:56:39
154 Grande 2419 ANDRE OLIVIER M/50-59 00:56:43
155 Grande 930 DRIESSENS ISABELLE F/50-59 00:56:43
156 Grande 1073 SEGUY DENIS CEPAL M/50-59 00:56:44
157 Grande 356 FRANCHE FLORENTIN M/20-29 00:56:45
158 Grande 862 OBIN MIKAEL MICHOTTE M/30-39 00:56:47
159 Grande 229 METROT VERONIQUE SBT F/40-49 00:56:47
160 Grande 932 DE GROOTTE ESTELLE TRAINING 7 -RIWA F/20-29 00:56:50
161 Grande 86 BORRINI ULYSSE M/30-39 00:56:51
162 Grande 958 DE POTTER LAURENT M/40-49 00:56:54
163 Grande 2614 GILBERT OLIVIER USBW ROAD TEAM M/40-49 00:56:55
164 Grande 3588 MENU GERALD JET M/40-49 00:56:57
165 Grande 5195 LUYCKFASSEEL ARNAUD M/30-39 00:56:59
166 Grande 863 FRISQUET FREDERIC M/40-49 00:57:00
167 Grande 3399 STORM JEAN-PAUL M/50-59 00:57:02
168 Grande 2105 JOLY ANNE TRAINING 7 -RIWA F/50-59 00:57:04
169 Grande 5431 LANGE DOMINIQUE M/50-59 00:57:06
170 Grande 561 BERREWAERTS ETIENNE USBW ROAD TEAM M/60-69 00:57:08
171 Grande 5247 ANTONISSEN QUENTIN M/30-39 00:57:11
172 Grande 5158 QUISQUATER PATRICK ZATEAM M/50-59 00:57:12
173 Grande 5407 HEYMANS CHARLES MICHOTTE M/20-29 00:57:14
174 Grande 5221 VEERLE HEYVAERT F/40-49 00:57:16
175 Grande 2348 VAN OSSELT THIERRY TRI OTAN M/50-59 00:57:19
176 Grande 3283 GOFFOY LARRY JE COURS A INCOURT M/40-49 00:57:26
177 Grande 5208 RODRIGUES DIEGO M/30-39 00:57:28
178 Grande 1447 LAUREYS PIERRE ANTILOB M/50-59 00:57:29
179 Grande 749 SPITAELS JONATHAN M/40-49 00:57:31
180 Grande 772 VARELA GONZALEZ PEDRO RCB M/40-49 00:57:33
181 Grande 5119 FLAMENT PIERRE RCB M/20-29 00:57:35
182 Grande 410 MONTOISY LOUISE TRAINING 7 -RIWA F/20-29 00:57:36
183 Grande 5403 ROY GEOFFREY M/30-39 00:57:38
184 Grande 1952 PIRAUX ADRIEN JAMES M/20-29 00:57:39
185 Grande 725 LEVASSEUR JOEL KURISTO M/50-59 00:57:49
186 Grande 3168 MEURICE PHILIPPE KURISTO M/40-49 00:57:53
187 Grande 4922 PAELEMAN PHILIPPE M/50-59 00:57:59
188 Grande 3605 GODEFRIDI ISABELLE TRAINING 7 -RIWA F/20-29 00:58:01
189 Grande 2643 DI MEO MARIA-RITA RCB F/40-49 00:58:03
190 Grande 5173 ANTENUCCI MAURO ESM M/60-69 00:58:03
191 Grande 210 DUPUIS OLIVIER KURISTO M/40-49 00:58:04
192 Grande 3048 MONTOISY GUILLAUME TRAINING 7 -RIWA M/30-39 00:58:05
193 Grande 5196 HERRIINGTON DAVID M/50-59 00:58:07
194 Grande 2526 BERDEN MICHEL M/60-69 00:58:07
195 Grande 1610 ROBIN ALEX JCPMFMONT ST GUIBERT M/40-49 00:58:09
196 Grande 310 ECCHER FABRICE M/40-49 00:58:11
197 Grande 5435 NOPRE VINCENT RCB M/40-49 00:58:12
198 Grande 5278 LENS JULIEN MICHOTTE M/20-29 00:58:12
199 Grande 484 VAN GENECHTEN MEDERIC M/30-39 00:58:13
200 Grande 194 MARTIN BRUNO JOG GAST M/40-49 00:58:16
201 Grande 94 DURVIAUX SERGE BIOTRAIL RUNNING TEA M/50-59 00:58:16
202 Grande 2034 DE MUNTER ALAIN MERTENS M/50-59 00:58:18
203 Grande 539 DECAMPS ERIC ESM M/50-59 00:58:21
204 Grande 5220 BILON EUSEBIO ESM M/60-69 00:58:21
205 Grande 3792 RASQUINET LAURENT M/50-59 00:58:24
206 Grande 5232 SEVRIN ANTOINE NAC M/40-49 00:58:25
207 Grande 374 OYARZABAL JONATHAN SPT WAVRE M/30-39 00:58:27
208 Grande 1940 SEN ERCAN CEPAL M/50-59 00:58:33
209 Grande 5472 PIGEOLET FRANCOIS TLF M/40-49 00:58:38
210 Grande 4277 ZERGHE PIERRE NAC M/40-49 00:58:42
211 Grande 3633 KIN LAURENCE JAMES F/50-59 00:58:44
212 Grande 5104 BORUNSKY LUKAS M/30-39 00:58:45
213 Grande 1209 PIETTE BERNARD RCB M/60-69 00:58:46
214 Grande 516 BECQUEVORT MICHEL RCB M/50-59 00:58:50
215 Grande 4084 NOEL MATHIS JE COURS A INCOURT M/20-29 00:58:51
216 Grande 5455 PREVOST THIBAULT M/20-29 00:58:52
217 Grande 3074 PUTTEMANS RAF FURALOPE M/40-49 00:58:53
218 Grande 5274 BRADT ELSE F/40-49 00:58:56
219 Grande 5166 SCHART GERL M/50-59 00:58:57
220 Grande 4155 DIERICKX JOEL M/40-49 00:59:02
221 Grande 4170 GERARD ALAIN TEND DET M/40-49 00:59:03
222 Grande 345 VAN DEN BROECK HERMAN FURALOPE M/40-49 00:59:09
223 Grande 5198 ROELANDTS SOPHIE RCB F/30-39 00:59:13
224 Grande 434 MUBERUKA CEDRIC M/20-29 00:59:14
225 Grande 2795 MAGRITTE OLIVIER NAC M/50-59 00:59:17
226 Grande 5236 REMACLE BRUNO TITAN M/40-49 00:59:18
227 Grande 4926 CANION CHRISTOPHE RUNNIN GREZ M/50-59 00:59:23
228 Grande 2481 HOUDMONT ARNAUD RUNATTITUDE M/50-59 00:59:26
229 Grande 3824 JOACHIM NICOLAS M/40-49 00:59:27
230 Grande 3367 RIEZ CHRISTOPHE SBT M/40-49 00:59:28
231 Grande 3760 MATTART DENIS JE COURS A INCOURT M/30-39 00:59:30
232 Grande 915 DEKENS KRISTOF LIEKERKE M/40-49 00:59:37
233 Grande 4010 DEMEY KEVIN FURALOPE M/40-49 00:59:39
234 Grande 3273 STOCKMANS THIBAUT NAC M/40-49 00:59:41
235 Grande 4875 PEROO DAVID JCPMFMONT ST GUIBERT M/50-59 00:59:42
236 Grande 5157 DE BACKER CHRISTOPHE M/40-49 00:59:44
237 Grande 944 DESTATTE ARNAUD M/30-39 00:59:45
238 Grande 4309 MINOT JEROME JET M/30-39 00:59:45
239 Grande 1749 DURITA ZOLIKA JET M/50-59 00:59:47
240 Grande 5192 DULAIT DAPHNE F/40-49 00:59:49
241 Grande 2123 PIRSON FLORENCE TRAINING 7 -RIWA F/40-49 00:59:50
242 Grande 4041 MELANGE LEON KURISTO M/60-69 00:59:51
243 Grande 609 WIARD LOIC M/30-39 00:59:53
244 Grande 924 CASTIAUX JOSE VALLEE H M/60-69 00:59:54
245 Grande 314 CHAUVIER JEAN PIERRE M/60-69 00:59:57
246 Grande 2681 DE CREMER THIERRY M/40-49 01:00:04
247 Grande 306 BECQUEVORT ALEXIS RCBT M/15-19 01:00:05
248 Grande 848 RYCKMANS CHARLES M/20-29 01:00:08
249 Grande 301 BARREA CATHY F/50-59 01:00:10
250 Grande 537 MOERMAN JONAS RONVAU M/40-49 01:00:11
251 Grande 5103 ARICKX STEPHEN M/50-59 01:00:12
252 Grande 1320 SOSMAN EDDY NAC M/50-59 01:00:14
253 Grande 1505 DEMOULIN OLIVIER JET M/40-49 01:00:17
254 Grande 1418 HENRY SIMON M/30-39 01:00:19
255 Grande 651 HOLOFFE DIDIER M/50-59 01:00:25
256 Grande 2999 VAN VELTHEM RAPHAEL JET M/30-39 01:00:26
257 Grande 1076 JACQMIN SERGE NAC M/60-69 01:00:28
258 Grande 3773 GILLET JOACHIM NAC M/40-49 01:00:31
259 Grande 5299 LANGE CHARLOTTE SWIFT F/20-29 01:00:35
260 Grande 251 NOEL CHRISTOPHE JE COURS A INCOURT M/40-49 01:00:36
261 Grande 783 MATERNE DANIEL USBW ROAD TEAM M/60-69 01:00:38
262 Grande 937 ROGMANS INGRID NAC F/40-49 01:00:40
263 Grande 166 DE MATHELIN ALEXANDRE M/30-39 01:00:44
264 Grande 100 CORDIER PASCAL RCB M/50-59 01:00:44
265 Grande 1058 GHYSSELINCKX CHRISTOPHE JAMES M/40-49 01:00:47
266 Grande 3818 DEBRY YVES M/50-59 01:00:50
267 Grande 2878 ARCHEN NATHALIE USBW ROAD TEAM F/30-39 01:00:50
268 Grande 1991 DEBLANDER BRUNO USBW ROAD TEAM M/60-69 01:00:52
269 Grande 2965 SAMPEDRO YANNICK M/30-39 01:00:53
270 Grande 1274 BEN AYAD MOHAMMED KURISTO M/60-69 01:00:55
271 Grande 5202 DEBOTH JOHAN AXA TEAM M/50-59 01:00:56
272 Grande 311 VANDEKERCKHOVE PHILIPPE TOUSPORT1 M/50-59 01:00:59
273 Grande 897 RUBAY CHRISTOPHE JET M/30-39 01:01:00
274 Grande 5402 NOLS CHRISTIAN MICHOTTE M/40-49 01:01:02
275 Grande 4821 FAIVRE STEPHANE M/20-29 01:01:03
276 Grande 4101 BALLANT DENIS M/50-59 01:01:04
277 Grande 3141 COMPERE MICHEL JAMES M/60-69 01:01:05
278 Grande 5203 NIHOUL BENOIT M/50-59 01:01:11
279 Grande 4765 LARROUMETS ANNICK NAC F/40-49 01:01:14
280 Grande 5200 LAMON FREDERIC M/40-49 01:01:16
281 Grande 3869 COUTELLIER FREDERIC M/40-49 01:01:17
282 Grande 3033 BRAMS HUGUES JAMES M/50-59 01:01:18
283 Grande 515 DECLERCQ MICHAEL SPVI M/50-59 01:01:19
284 Grande 432 MORRIS JAMES M/30-39 01:01:22
285 Grande 586 QUITTRE ADRIEN M/30-39 01:01:22
286 Grande 420 MANNERIE JEREMIE-MAXENCE M/30-39 01:01:24
287 Grande 459 DE BOCK PHILIP JAMES M/40-49 01:01:26
288 Grande 5145 DAVENPORT NICOLA RCB F/40-49 01:01:27
289 Grande 2202 WOUTERS LUC JOKA M/50-59 01:01:30
290 Grande 5152 BRAAM ARTHUR M/50-59 01:01:33
291 Grande 4089 SIMON FLORENCE JAMES F/40-49 01:01:37
292 Grande 4365 THOREAU SYLVAIN M/30-39 01:01:41
293 Grande 2453 HENDRICKX PIERRE JAMES M/50-59 01:01:42
294 Grande 4490 PLETINCKX SYLVIE JET F/40-49 01:01:49
295 Grande 689 DEPLASSE ALEXANDRE M/20-29 01:01:50
296 Grande 5463 BRUNCLAIR OLIVIER MICHOTTE M/40-49 01:01:55
297 Grande 1936 PAULUS YVES JC OETINGEN M/40-49 01:01:57
298 Grande 466 ROMAIN TIMOTHEE M/30-39 01:01:58
299 Grande 3512 ABEELS THIERRY JAMES M/50-59 01:01:59
300 Grande 159 LETELLIER JEAN LUC M/50-59 01:02:00
301 Grande 1623 VERHEISTRAETEN JOHNNY JET M/50-59 01:02:01
302 Grande 4850 VANDERLINDEN TOM FURALOPE M/40-49 01:02:02
303 Grande 3853 LISSENS DANIEL DEMARSIN M/70-+ 01:02:03
304 Grande 5266 COUPIN PATRICK ENJAMBEE M/40-49 01:02:05
305 Grande 1321 LAMBERT FRANCOIS RONVAU M/30-39 01:02:06
306 Grande 5456 JORIA LOPEZ MIGUEL MICHOTTE M/40-49 01:02:08
307 Grande 716 LENAERTS STEVE JOGGANS M/30-39 01:02:13
308 Grande 721 HENDERYCKX PIERRE FRANCOIS RUNNIN GREZ M/50-59 01:02:18
309 Grande 3046 SOHIE PASCAL ZATEAM M/40-49 01:02:23
310 Grande 1282 KUYPERS EDDY JAMES M/60-69 01:02:24
311 Grande 2763 BRUNEEL CEDRIC M/40-49 01:02:25
312 Grande 925 CLAUDE JULIEN JAMES M/30-39 01:02:27
313 Grande 5115 DEBRABANDERE FRANCOIS VERTIGO M/30-39 01:02:30
314 Grande 1716 SIJMUS WILLY HOOIBERGLOPERS M/60-69 01:02:36
315 Grande 5284 KUMPS MATHIEU M/20-29 01:02:36
316 Grande 603 VAN HECKE DIDIER NAC M/50-59 01:02:40
317 Grande 636 PIERRE STEPHANE JTP BLANCS GILETS M/50-59 01:02:40
318 Grande 5412 GEREMI ROMAIN JAMES M/20-29 01:02:44
319 Grande 5154 DHULU GUILLAUME M/40-49 01:02:47
320 Grande 5197 VANKEER THIBAUT M/30-39 01:02:49
321 Grande 2714 BULPA ANDRE JCPMFMONT ST GUIBERT M/60-69 01:02:49
322 Grande 1923 LAMBERT ANTOINE JCPMFMONT ST GUIBERT M/30-39 01:02:51
323 Grande 144 LAPRAILLE DANIEL JCPMFMONT ST GUIBERT M/60-69 01:02:52
324 Grande 819 LECUIVRE CORINNE KURISTO F/40-49 01:02:53
325 Grande 5416 JOSSE PHILIPPE M/50-59 01:02:57
326 Grande 1227 DELODDERE CHRISTEL NAC F/30-39 01:02:58
327 Grande 659 DEGROOTE NICOLAAS IXEL M/40-49 01:02:59
328 Grande 5461 CAPOUILLEZ BENOIT ESM M/40-49 01:02:59
329 Grande 605 MIRAUMONT LAURENT JCPMFMONT ST GUIBERT M/40-49 01:03:00
330 Grande 5394 VAN MOLLEKOT MARTIN M/20-29 01:03:04
331 Grande 3010 XHAET NATHALIE F/40-49 01:03:07
332 Grande 5146 VAERMAN GUY RCB M/50-59 01:03:09
333 Grande 5434 MOURTADA KARIM LDLV M/40-49 01:03:13
334 Grande 5459 GILLE THOMAS M/30-39 01:03:16
335 Grande 5288 DE WIT LAURENT MICHOTTE M/30-39 01:03:18
336 Grande 5240 DE MAEYER SIMON M/30-39 01:03:19
337 Grande 1734 VALCKE ALAIN M/50-59 01:03:20
338 Grande 123 MAEDER COSTANTINO M/60-69 01:03:21
339 Grande 1378 RICHE ALAIN MICHOTTE M/50-59 01:03:22
340 Grande 1153 PALUMBO AGOSTINO KURISTO M/40-49 01:03:24
341 Grande 702 FOBE JEAN-JACQUES COATCHING M/50-59 01:03:25
342 Grande 829 DEMAIRE BARBARA RUNNIN GREZ F/40-49 01:03:26
343 Grande 326 EGGERMONT FRANCISCO COATCHING M/40-49 01:03:28
344 Grande 5207 PREHAUT QUENTIN M/40-49 01:03:30
345 Grande 2101 HAESEBROUCK GILLES M/40-49 01:03:38
346 Grande 918 WAUCAMPT DENIS M/40-49 01:03:40
347 Grande 5262 DUDEKEM ANTOINE M/30-39 01:03:47
348 Grande 5291 DELWART ROLAND VERTIGO M/50-59 01:03:49
349 Grande 5448 STEVENS ELS ZATEAM F/50-59 01:04:00
350 Grande 5245 JOUKES DIEDERIK ZATEAM M/50-59 01:04:01
351 Grande 1130 MINNE ETIENNE VERTIGO M/50-59 01:04:04
352 Grande 1930 MICHEL ROLAND JCPMFRAMILLIES M/40-49 01:04:08
353 Grande 128 PONCHON YVES M/40-49 01:04:12
354 Grande 5252 TAILLIEU NICOLAS M/40-49 01:04:14
355 Grande 287 DERUMIER AUDREY JAMES F/30-39 01:04:21
356 Grande 5300 GRAWET NICOLAS ESM M/40-49 01:04:24
357 Grande 2390 PERMENTIER DELPHINE JCPMFMONT ST GUIBERT F/40-49 01:04:25
358 Grande 1750 POURTOIS CHRISTIAN M/50-59 01:04:26
359 Grande 849 VAN HAMME ARNAUD M/30-39 01:04:26
360 Grande 334 DAUPHIN MARION RCB F/30-39 01:04:28
361 Grande 5193 VAN MALLEGHEM OLIVIER MICHOTTE M/50-59 01:04:29
362 Grande 5438 MANSOUR FREDERIC M/40-49 01:04:31
363 Grande 1517 ROBERT PAUL RCB M/70-+ 01:04:34
364 Grande 5129 MILIS STEPHAN ENJAMBEE M/60-69 01:04:34
365 Grande 5144 WAGNON RAPHAEL M/20-29 01:04:39
366 Grande 559 LANCKRIET ALEX ESM M/50-59 01:04:39
367 Grande 5124 LAUREYS TIM DE LOOPCLUB M/40-49 01:04:42
368 Grande 5132 RECOUR KOEN DE LOOPCLUB M/50-59 01:04:45
369 Grande 835 DELABY JEAN MARC ROS M/50-59 01:04:47
370 Grande 5447 MORVAN SABINE F/50-59 01:04:49
371 Grande 131 DEWILDE DIMITRI RUNNIN GREZ M/40-49 01:04:51
372 Grande 5174 DE WOOT ANTOINETTE ESM F/50-59 01:04:53
373 Grande 5177 MERCKEN YVETTE LDLV F/50-59 01:04:54
374 Grande 1031 LEGAT VINCENT JAMES M/50-59 01:04:55
375 Grande 1828 GRANDELET PHILIPPE M/50-59 01:04:57
376 Grande 426 MARCQ KARL TOUSPORT1 M/60-69 01:05:00
377 Grande 2784 VERVLOESEM XAVIER TOUSPORT1 M/50-59 01:05:06
378 Grande 1560 MARLOYE LUC JE COURS A INCOURT M/50-59 01:05:07
379 Grande 3898 VANWICHELEN PHILIPPE JAMES M/50-59 01:05:09
380 Grande 974 LEMPEREUR JEAN LUC KURISTO M/60-69 01:05:11
381 Grande 5257 STROOBANT JUSTINE RCBT F/20-29 01:05:13
382 Grande 5107 BUNDERVOET TOM M/40-49 01:05:13
383 Grande 1637 DENIS VINCENT SWIFT M/50-59 01:05:15
384 Grande 193 COSSE MARTINE JAMES F/50-59 01:05:16
385 Grande 700 FAVIA VITO M/40-49 01:05:19
386 Grande 1818 VANRIE PIERRE M/50-59 01:05:20
387 Grande 4637 DELFERIERE DIDIER M/50-59 01:05:21
388 Grande 3183 MARTINACHE GAUTHIER RCB M/50-59 01:05:22
389 Grande 5237 DUHOUX FRANCOIS SPORT VILLAGE M/40-49 01:05:24
390 Grande 665 SIROU CEDRIC M/30-39 01:05:26
391 Grande 4317 MEUNIER PHILIPPE NAC M/50-59 01:05:28
392 Grande 5122 HARDMAN WILLY ENJAMBEE M/50-59 01:05:31
393 Grande 5452 VAN GEEST HELEEN ENJAMBEE F/50-59 01:05:33
394 Grande 1600 LESNE DIDIER LDLV M/50-59 01:05:33
395 Grande 2995 DE WULF LUC ESM M/60-69 01:05:37
396 Grande 5265 BOUSSON BERNARD M/30-39 01:05:37
397 Grande 185 PARMENTIER KARINE NAC F/50-59 01:05:39
398 Grande 5224 MICHIELS ERIK FORREST RUN M/50-59 01:05:40
399 Grande 4530 GROSJEAN ASTRID JAMES F/40-49 01:05:42
400 Grande 2178 MIDDEL INE ROBA F/60-69 01:05:43
401 Grande 1059 DETEMMERMAN ANDY JAMES M/30-39 01:05:43
402 Grande 2172 MAUS JAN ROBA M/60-69 01:05:46
403 Grande 598 LAMBERT CHRISTOPHE NAC M/40-49 01:05:48
404 Grande 1016 BALTHAZARD JOHNNY NAC M/60-69 01:05:52
405 Grande 5143 WAGNON SYLVAIN M/50-59 01:05:57
406 Grande 827 STALINS PHILIPPINE F/20-29 01:05:59
407 Grande 352 DE VISSCHER PATRICK TURBO M/50-59 01:06:00
408 Grande 5108 BUNDERVOET NIEK M/40-49 01:06:01
409 Grande 2796 VANHALLE FRANCOIS-XAVIER RUN4VILLERS M/30-39 01:06:06
410 Grande 1717 DEFALQUE ALBAN ANTILOB M/50-59 01:06:07
411 Grande 1779 VAN BAMIS CLAUDE M/60-69 01:06:08
412 Grande 5446 GRISANTI NICOLA M/50-59 01:06:08
413 Grande 5136 SAGAERT DENIS M/50-59 01:06:09
414 Grande 4397 MANNAERTS NICOLAS M/40-49 01:06:10
415 Grande 149 GILLET CHRISTIAN SBT M/50-59 01:06:10
416 Grande 5442 MAHIEUR EDDY M/40-49 01:06:13
417 Grande 892 KEMPENEERS STEPHANE JAMES M/40-49 01:06:19
418 Grande 5445 VAN HERREWECHE GEERT MICHOTTE M/50-59 01:06:21
419 Grande 5114 DE KEYSER MARTIN M/15-19 01:06:25
420 Grande 967 DESCHAMPS CARL RUN4VILLERS M/50-59 01:06:29
421 Grande 398 LEHANNE ERIC JAMES M/40-49 01:06:29
422 Grande 369 DE LEENER JEAN-MARIE NAC M/60-69 01:06:31
423 Grande 63 DUMOULIN PHILIPPE RUNNIN GREZ M/50-59 01:06:33
424 Grande 5420 MAUCLET ELISABETH MICHOTTE F/20-29 01:06:36
425 Grande 5159 MARCHESE MICHELA MARIA MICHOTTE M/20-29 01:06:41
426 Grande 5436 MACK KEVIN JET M/20-29 01:06:42
427 Grande 3775 LAMOTTE JONATHAN USBW ROAD TEAM M/40-49 01:06:44
428 Grande 1763 WARIN DIDIER BELGRAVE M/50-59 01:06:45
429 Grande 4766 THOMAS FABRICE JTP BLANCS GILETS M/50-59 01:06:51
430 Grande 2833 HOYOIS MARC CSF M/50-59 01:06:52
431 Grande 1225 THIRD IAN M/60-69 01:06:55
432 Grande 5179 DEVILERS LAURIE MICHOTTE F/20-29 01:06:57
433 Grande 3469 MARCHAND ETIENNE RCB M/70-+ 01:06:59
434 Grande 5298 PROVENAZ FABRICE ENJAMBEE M/50-59 01:07:01
435 Grande 5121 GONZALEZ GARCIA ISAAC M/40-49 01:07:09
436 Grande 3199 SCHARPE CHARLES JE COURS A INCOURT M/50-59 01:07:11
437 Grande 873 VUYE THIERRY RCB M/50-59 01:07:12
438 Grande 788 JOUNDY OTHMAN JCPMFBRAINE M/40-49 01:07:14
439 Grande 5187 VAN LOOCK PETER AXA TEAM M/50-59 01:07:17
440 Grande 5471 HAROU JULIE JAMES F/20-29 01:07:19
441 Grande 2017 BUISSIN SARAH CS DYLE F/20-29 01:07:22
442 Grande 3963 STOURME MURIEL NAC F/30-39 01:07:24
443 Grande 5406 CHAFWEHE BORIS M/20-29 01:07:29
444 Grande 5258 FABRY GREGORY M/40-49 01:07:30
445 Grande 5479 FOVOART MICHELE MICHOTTE F/30-39 01:07:41
446 Grande 633 BYTHELL WILLIAM M/70-+ 01:07:41
447 Grande 3264 RONDOU PHILIPPE NAC M/50-59 01:07:45
448 Grande 95 HEYMANS JEAN PIERRE RONVAU M/50-59 01:07:48
449 Grande 1735 GHERAILLE JEAN-MARC M/50-59 01:07:54
450 Grande 3847 RAYMAKERS KEVIN M/30-39 01:07:58
451 Grande 2384 MAURISSET ALEXANDRE NAC M/50-59 01:07:59
452 Grande 5212 DEVREUX FREDERIC M/50-59 01:08:03
453 Grande 5160 NEMRY FRAN?OISE F/40-49 01:08:04
454 Grande 506 VANDEWYNCKEL SEBASTIEN M/40-49 01:08:06
455 Grande 1833 BUISSIN MICHEL GSKFUNCLUB M/50-59 01:08:06
456 Grande 5229 MULS SEBASTIEN LDLV M/40-49 01:08:08
457 Grande 730 MABILLE SEBASTIEN M/40-49 01:08:10
458 Grande 49 NOEL MARIE ANNE JE COURS A INCOURT F/50-59 01:08:10
459 Grande 2622 NOEL HERVE JE COURS A INCOURT M/40-49 01:08:12
460 Grande 5287 HOUART PATRICK COUREURS ORPOIS M/50-59 01:08:12
461 Grande 3093 JACOBS QUENTIN M/30-39 01:08:16
462 Grande 2109 PAGE THIBAUT JE COURS A INCOURT M/30-39 01:08:16
463 Grande 777 BENITEZ JONATHAN M/40-49 01:08:19
464 Grande 5391 SCOUPE CATHY F/50-59 01:08:21
465 Grande 2556 MAGOTTE OLIVIER JAMES M/40-49 01:08:21
466 Grande 246 BORGINON BERNARD LEEUWERI M/40-49 01:08:23
467 Grande 4823 VAN KERCKHOVEN PASCAL NAC M/50-59 01:08:25
468 Grande 959 CAIRA SERGIO M/50-59 01:08:27
469 Grande 291 FALISE MATHIEU JE COURS A INCOURT M/30-39 01:08:28
470 Grande 3005 VANPEE ALAIN JE COURS A INCOURT M/70-+ 01:08:29
471 Grande 746 PAQUET ERIC M/30-39 01:08:31
472 Grande 3134 BEKEN RIKA FURALOPE F/40-49 01:08:32
473 Grande 3326 BRANTEGHEM STEPHANE M/40-49 01:08:35
474 Grande 67 PERNIAUX CHARLES JE COURS A INCOURT M/50-59 01:08:38
475 Grande 413 DUCHENE JEAN PIERRE RONVAU M/60-69 01:08:47
476 Grande 3077 HILAIRE ANNE-CHRISTINE F/40-49 01:08:50
477 Grande 1698 WILLAME DIDIER TURBO M/50-59 01:08:51
478 Grande 3078 BOUFFARD BRICE GSKFUNCLUB M/40-49 01:08:52
479 Grande 3852 BIDAINE LUC WPRC M/60-69 01:08:53
480 Grande 5398 BAHBOUT ILAN M/40-49 01:08:54
481 Grande 3864 HOUDMONT ALICE F/20-29 01:08:56
482 Grande 5142 URDIAIN SONIA F/40-49 01:08:58
483 Grande 3065 VUYLSTEKE PHILIPPE M/60-69 01:08:58
484 Grande 5289 DEMAERSCHALK MICHEL M/50-59 01:09:00
485 Grande 3660 DEBELLE STEPHANIE NAC F/30-39 01:09:02
486 Grande 1343 MARGOT JAN BELGACOM M/60-69 01:09:02
487 Grande 1056 LAUWERS BERNARD NAC M/60-69 01:09:05
488 Grande 2607 CHVOJKOVA STEPANKA RCB F/40-49 01:09:05
489 Grande 2395 FOLON JENNYFER F/30-39 01:09:13
490 Grande 1979 CROONENBORGHS JULIEN M/40-49 01:09:14
491 Grande 3201 VERHELLE THIERRY RONVAU M/50-59 01:09:15
492 Grande 2785 LACKNER SANDRINE WPRC F/40-49 01:09:16
493 Grande 3726 JAMSIN GEOFFREY M/40-49 01:09:19
494 Grande 2576 D HAEMER ISABELLE NAC F/50-59 01:09:19
495 Grande 2609 MORIS LAURENT RCB M/40-49 01:09:21
496 Grande 5169 VERNAILLEN DIMITRI M/40-49 01:09:22
497 Grande 5478 BONHOMME JEAN-BAPTISTE M/20-29 01:09:24
498 Grande 5194 CIELEN KLARA MICHOTTE F/30-39 01:09:25
499 Grande 5254 GHYSEN ANDRE SPT WAVRE M/60-69 01:09:26
500 Grande 127 AUPAIX GUY JAMES M/60-69 01:09:28
501 Grande 376 DUBOIS MICHEL TEND DET M/60-69 01:09:33
502 Grande 5393 ISAKSSON EBBA MICHOTTE F/20-29 01:09:34
503 Grande 2829 FEYS LAURENT RUNNER CHASTRE M/40-49 01:09:36
504 Grande 5185 BERESI ALESANDRO M/60-69 01:09:38
505 Grande 2885 CHAPUIS MICHEL M/70-+ 01:09:38
506 Grande 189 PIQUARD BENOIT JAMES M/50-59 01:09:40
507 Grande 3069 JANSSENS MICHELE JCPMF GENAPPE F/40-49 01:09:42
508 Grande 2327 MELARD JEAN-LUC JAMES M/60-69 01:09:43
509 Grande 927 TAMIGNEAUX JULIEN M/30-39 01:09:45
510 Grande 817 BONNEELS BERNARD M/40-49 01:09:46
511 Grande 794 KEISEN EDWIN M/20-29 01:09:48
512 Grande 10 TITART PAUL RCB M/50-59 01:09:50
513 Grande 1018 HUBER REGINA ENJAMBEE F/50-59 01:09:50
514 Grande 845 PONCIN AURORE CSF F/30-39 01:09:55
515 Grande 446 DUPONT PIERRE JAMES M/60-69 01:09:56
516 Grande 3956 DEJONGHE JEAN-PAUL JAMES M/60-69 01:09:58
517 Grande 3989 DEPAUW MARC NAC M/50-59 01:10:00
518 Grande 385 TILMAN GUSTAVE M/70-+ 01:10:02
519 Grande 614 BAUMONT PATRICK JTP BLANCS GILETS M/50-59 01:10:04
520 Grande 2707 GILBERT DOMINIQUE USBW ROAD TEAM M/50-59 01:10:06
521 Grande 3788 LEUS FABIENNE JCPMFMONT ST GUIBERT F/50-59 01:10:07
522 Grande 5418 GUILLICK JEAN-PIERRE M/40-49 01:10:08
523 Grande 5415 BAUWENS GUILLAUME M/30-39 01:10:09
524 Grande 3572 DECOURTIT FREDERIC JAMES M/40-49 01:10:11
525 Grande 4786 LETOR JEAN-PAUL M/50-59 01:10:14
526 Grande 450 PARISSE MARIE F/40-49 01:10:16
527 Grande 953 MENDES URSULA POTOS F/40-49 01:10:16
528 Grande 5211 HERMANNS BEATRICE MICHOTTE F/40-49 01:10:18
529 Grande 1929 DECAMP MARTINE JCPMF GENAPPE F/60-69 01:10:18
530 Grande 490 GROSSEN ROLANDE TEND DET F/70-+ 01:10:19
531 Grande 2662 PERZYNA LODIA JAMES F/40-49 01:10:20
532 Grande 4045 CATOUL CAROLINE F/30-39 01:10:21
533 Grande 672 TUMELAIRE SOPHIE JTP BLANCS GILETS F/50-59 01:10:22
534 Grande 5190 COURCELLES GILLES EMMANUEL CEPAL M/60-69 01:10:25
535 Grande 242 NELIS FRANCOIS M/60-69 01:10:28
536 Grande 5227 NIELS FREDERIC MICHOTTE M/40-49 01:10:31
537 Grande 5228 CARDON LAURENT M/40-49 01:10:32
538 Grande 3651 MAJA QUENTIN JET M/20-29 01:10:35
539 Grande 5175 LE ROUX AUDREY LDLV F/40-49 01:10:35
540 Grande 3138 COLASSE DIDIER M/40-49 01:10:37
541 Grande 2320 MATHIEU MICHEL M/40-49 01:10:38
542 Grande 2209 BRAHAM JEAN-NICOLAS JAMES M/70-+ 01:10:39
543 Grande 206 COLMANT OLIVIER JE COURS A INCOURT M/60-69 01:10:41
544 Grande 1355 VANDEN DRIESCH FRANCOIS DACM M/50-59 01:10:42
545 Grande 4006 FACON ALEXIA KURISTO F/15-19 01:10:44
546 Grande 1518 FALLET GILLES RCB M/60-69 01:10:46
547 Grande 982 HOUBART AGNES RONVAU F/50-59 01:10:47
548 Grande 1028 SOMMEREYNS PHILIPPE RONVAU M/50-59 01:10:49
549 Grande 2092 FARNIER MARGUERITE AXA TEAM F/50-59 01:10:51
550 Grande 2484 DUTRIEUX ERIC NAC M/50-59 01:10:55
551 Grande 683 DEMUYSER MARC JCPMFRAMILLIES M/50-59 01:10:56
552 Grande 3148 LEMAINE DOMINIQUE JCPMF GENAPPE M/50-59 01:10:57
553 Grande 5217 GONZALEZ DANIEL M/50-59 01:10:58
554 Grande 1108 LELOUP STEPHAN TRAINING 7 -RIWA M/60-69 01:11:00
555 Grande 37 LEVACQ GUY LDLV M/70-+ 01:11:01
556 Grande 5440 JONCKERS PITCH M/60-69 01:11:05
557 Grande 1406 ANDRIES VIRGINIE JE COURS A INCOURT F/50-59 01:11:05
558 Grande 2818 BERREWAERTS FLORENCE USBW ROAD TEAM F/30-39 01:11:06
559 Grande 5216 BREYER HUGO M/20-29 01:11:08
560 Grande 744 MOURMAUX JEAN FRANCOIS AXA TEAM M/60-69 01:11:10
561 Grande 5167 GANTY BENJAMIN ESM M/40-49 01:11:10
562 Grande 1088 GODEFRIDI THIERRY M/60-69 01:11:13
563 Grande 5296 VANDERLINDEN QUENTIN M/20-29 01:11:14
564 Grande 5475 LOCUS SYDNEY M/30-39 01:11:16
565 Grande 5297 HENRY STEPHAN M/20-29 01:11:17
566 Grande 4344 RIZZERIO-DEVIS LAURA JAMES F/60-69 01:11:18
567 Grande 411 DEPREZ CHRISTIAN RONVAU M/60-69 01:11:22
568 Grande 3413 VAN DURME LAURENT M/40-49 01:11:23
569 Grande 3237 PALATE FABIAN CSF M/50-59 01:11:27
570 Grande 905 KETELAER LUC M/50-59 01:11:28
571 Grande 2612 MOMMAERTS MARIE-JEANNE LDLV F/50-59 01:11:30
572 Grande 252 REUSS BENOIT TEND DET M/50-59 01:11:30
573 Grande 4869 MOREAU MARYEVE JCPMFMONT ST GUIBERT F/30-39 01:11:32
574 Grande 5209 WARDEGA SERGE M/50-59 01:11:33
575 Grande 5110 COOLS EVA DE LOOPCLUB F/40-49 01:11:34
576 Grande 1042 PREVOST NICOLAS RUNNIN GREZ M/50-59 01:11:36
577 Grande 1265 CEULEMANS NICOLAS JE COURS A INCOURT M/50-59 01:11:38
578 Grande 322 VANDERLINDEN DANIEL M/40-49 01:11:40
579 Grande 5127 MARQUET CHARLOTTE F/30-39 01:11:41
580 Grande 3227 FEYS MAURICE RUNNER CHASTRE M/60-69 01:11:44
581 Grande 5259 COLSON ERIC M/40-49 01:11:44
582 Grande 5396 NADER NICK M/20-29 01:11:51
583 Grande 2061 CLAIRBOIS LAURENT JE COURS A INCOURT M/50-59 01:11:54
584 Grande 960 LAMBERT DAVID M/40-49 01:11:56
585 Grande 871 CHARLIER BAUDOUIN JET M/60-69 01:11:57
586 Grande 5451 WILMS ISABELLE NAC F/40-49 01:11:59
587 Grande 1927 GERARD PASCAL JCPMFRAMILLIES M/50-59 01:12:00
588 Grande 1845 GOFFIN MATHILDE JCPMFRAMILLIES F/40-49 01:12:03
589 Grande 5277 DELLISSE PHILIPPE JCPMFRAMILLIES M/50-59 01:12:03
590 Grande 5470 MAHAUX HAROLD M/30-39 01:12:04
591 Grande 1817 RADDOUX HUGO HWJ HOEGARDEN M/60-69 01:12:08
592 Grande 2825 VANDEN BOSSCHE THIERRY RUN4VILLERS M/40-49 01:12:09
593 Grande 1745 FALQUE PIERRE RCB M/50-59 01:12:10
594 Grande 1651 SCOUPPE GERY TTB M/50-59 01:12:12
595 Grande 179 NOTEZ NATHALIE NAC F/40-49 01:12:15
596 Grande 1478 ALAIME AURELIE SPT WAVRE F/40-49 01:12:15
597 Grande 2597 TIELEMANS PHILIPPE RUN4VILLERS M/50-59 01:12:17
598 Grande 5111 CRABB ALISON F/40-49 01:12:20
599 Grande 5171 BJORNAVOLD JENS MICHOTTE M/60-69 01:12:21
600 Grande 80 DELBROUCK SYLVIE JCPMF SOMBREFFE F/40-49 01:12:23
601 Grande 1918 VAN CAMP JEAN FRANCOIS POTOS M/40-49 01:12:26
602 Grande 13 POULAIN ROLAND RONVAU M/70-+ 01:12:27
603 Grande 5133 REQUENA ANTONIO M/50-59 01:12:28
604 Grande 4376 VAN MOLLEKOT CHRISTOPHE M/40-49 01:12:31
605 Grande 5477 REDOUTE GAELLE F/20-29 01:12:31
606 Grande 3215 LEVECQ MATHIAS CABW M/15-19 01:12:35
607 Grande 2300 COUDRAY RACHEL AXA TEAM F/40-49 01:12:35
608 Grande 2016 SPIESSENS JOHAN HWJ HOEGARDEN M/50-59 01:12:38
609 Grande 2517 ROZENBLAT STEPHANE NAC M/50-59 01:12:40
610 Grande 1317 DENIS CHRISTIAN ESM M/60-69 01:12:41
611 Grande 2838 NOIZET MARIE ALICE ROS F/50-59 01:12:43
612 Grande 5230 NILLES MARIE MICHOTTE F/30-39 01:12:45
613 Grande 5450 BASILE FABIO MICHOTTE M/40-49 01:12:46
614 Grande 945 DUERINCKX JULIE F/30-39 01:12:47
615 Grande 4874 VANDERHOEVEN PATRICK FURALOPE M/40-49 01:12:47
616 Grande 5280 HEVLERS CHRISTELLE F/40-49 01:12:51
617 Grande 4443 DE BRUYNE ANNE LDLV F/50-59 01:12:52
618 Grande 814 ROOSEN FABIENNE F/40-49 01:12:53
619 Grande 4375 LEYSSSENS VALERIE F/40-49 01:12:53
620 Grande 1185 EDOM MELANIE NAC F/30-39 01:12:55
621 Grande 5128 MEIRE ANNE SOPHIE F/30-39 01:12:57
622 Grande 4639 DEPERCENAIRE SYLVIE TUBIZE RUN F/50-59 01:12:57
623 Grande 4486 DEWAEL PHILIPPE JAMES M/70-+ 01:12:58
624 Grande 5399 PENSON NICOLAS M/30-39 01:12:59
625 Grande 996 VAN DE WALLE NATHALIE JCPMFORME F/30-39 01:13:00
626 Grande 3925 SARLET ERIC TRAINING 7 -RIWA M/50-59 01:13:01
627 Grande 313 APPELMANS STEPHANE CSF M/50-59 01:13:05
628 Grande 565 MOSSELMANS PATRICK M/50-59 01:13:08
629 Grande 2895 DEMARET NATHALIE NAC F/40-49 01:13:10
630 Grande 875 DALCQ JEAN CLAUDE RONVAU M/50-59 01:13:17
631 Grande 5410 BAETENS ISABELLE F/30-39 01:13:21
632 Grande 786 DEGAND ERIC M/40-49 01:13:24
633 Grande 3577 DESERRANNO MYRIAM JAMES F/60-69 01:13:25
634 Grande 5161 BOUHARMONT ALAIN M/60-69 01:13:27
635 Grande 888 THEATE SANDRA GAG F/30-39 01:13:27
636 Grande 347 DE HALLEUX MAELLE F/20-29 01:13:30
637 Grande 587 RICA JULIA JCPMF GENAPPE F/40-49 01:13:34
638 Grande 4072 VERBRAEKEN NICOLAS M/40-49 01:13:35
639 Grande 882 VAN GOSSUM LUC RCB M/70-+ 01:13:36
640 Grande 520 BIERLAIRE RAPHAEL JCPMF GENAPPE M/40-49 01:13:37
641 Grande 3396 LEROY DAMIEN M/20-29 01:13:38
642 Grande 1053 MACHADO ANTONIO RONVAU M/60-69 01:13:39
643 Grande 512 PANNEELS JEAN-JACQUES AXA TEAM M/60-69 01:13:40
644 Grande 3086 MATTEZ GENEVIEVE KHOLANTA F/50-59 01:13:41
645 Grande 5225 BERNARD MARIE MICHOTTE F/20-29 01:13:44
646 Grande 926 PICHEL DANIEL WATERLOO RUNNERS M/50-59 01:13:46
647 Grande 4887 LUYTEN FABIENNE JCPMF GENAPPE F/50-59 01:13:47
648 Grande 4931 AERTS INA FURALOPE F/50-59 01:13:50
649 Grande 5112 DE FAYS DOMITILLE NAC F/30-39 01:13:50
650 Grande 857 CHATRY AURELIE JAMES F/40-49 01:13:53
651 Grande 4328 ROMERS ERIC JAMES M/50-59 01:13:54
652 Grande 5405 LOBET DELPHINE F/40-49 01:13:55
653 Grande 5404 LOBET JULIEN M/20-29 01:13:56
654 Grande 5458 ZAGHBOUL RABI M/30-39 01:13:59
655 Grande 655 LISCHETTI JEAN FRANCOIS M/50-59 01:14:00
656 Grande 2145 LEHAIRE DAVID JET M/40-49 01:14:03
657 Grande 5116 DROUET NOEMIE VERTIGO F/20-29 01:14:04
658 Grande 1074 BEUN MAGALI ANTILOB F/40-49 01:14:06
659 Grande 5413 ARRAS DOMINIQUE M/50-59 01:14:07
660 Grande 1883 BREYNE CHANTAL NAC F/50-59 01:14:08
661 Grande 2908 HECQ ANNE FRANCOISE NAC F/50-59 01:14:10
662 Grande 1796 CAMMAS CLAUDIA RCB F/60-69 01:14:13
663 Grande 2611 JACQUES DELPHINE CEPAL F/40-49 01:14:15
664 Grande 762 STEINBACH AURELIE JAMES F/30-39 01:14:18
665 Grande 5183 LEGRAND EMELINE F/30-39 01:14:18
666 Grande 2848 DE MOOR RUDI M/60-69 01:14:20
667 Grande 27 DEBEUF STEPHANE CSF M/50-59 01:14:25
668 Grande 1937 VREVEN LAURENT JAMES M/50-59 01:14:35
669 Grande 11 ADAMS SABINE F/40-49 01:14:37
670 Grande 427 GLIBERT LAETITIA JET F/40-49 01:14:41
671 Grande 3003 BARBIER INGRID GSKFUNCLUB F/40-49 01:14:41
672 Grande 2803 HEYMANS VALERIE JAMES F/50-59 01:14:43
673 Grande 257 COOLS CHRISTIAN JAMES M/60-69 01:14:43
674 Grande 3408 DEFERIERE JULIE JAMES F/40-49 01:14:44
675 Grande 3145 HAYANI ABDER USBW ROAD TEAM M/60-69 01:14:45
676 Grande 4428 SEMOULIN DENIS M/40-49 01:14:47
677 Grande 335 DE HALLEUX HELENE F/20-29 01:14:48
678 Grande 340 DE HALLEUX ODILE F/20-29 01:14:48
679 Grande 1402 JANSSEN CHLOE F/30-39 01:14:53
680 Grande 914 PEDERSON PIERRE M/30-39 01:14:54
681 Grande 3372 BOSSCHEM OLIVIER AXA TEAM M/40-49 01:14:55
682 Grande 1160 RIGOT SERGE RCB M/70-+ 01:15:00
683 Grande 5241 DE LILLE MATHIEU ZATEAM M/50-59 01:15:03
684 Grande 5272 GEZELS EMMANUEL ESM M/30-39 01:15:05
685 Grande 796 RUTTIENS ANTOINE KURISTO M/40-49 01:15:08
686 Grande 5255 VANDEPERRE ALICE F/40-49 01:15:09
687 Grande 5251 MENENDEZ JUAN M/50-59 01:15:10
688 Grande 3557 DEMOULIN CAMILLE JET F/15-19 01:15:12
689 Grande 3718 VERDEYEN BRUNO M/30-39 01:15:16
690 Grande 455 POTTEN CLEMENCE F/20-29 01:15:21
691 Grande 3859 VLAMINCK NATACHA SPT WAVRE F/40-49 01:15:26
692 Grande 1328 THIRION FRANCOISE ESM F/60-69 01:15:29
693 Grande 5457 BOUCHAT JESSICA F/30-39 01:15:29
694 Grande 4416 DOORNAERT JEREMIE M/40-49 01:15:31
695 Grande 1945 DELTENRE CEDRIC M/40-49 01:15:32
696 Grande 1938 ELOY NATHALIE F/40-49 01:15:32
697 Grande 1308 MARTINEZ MANUEL JCPMFRAMILLIES M/50-59 01:15:36
698 Grande 5242 LEMPEREUR CELINE MICHOTTE F/30-39 01:15:45
699 Grande 4326 DECOCQ FRANCOISE JAMES F/50-59 01:15:50
700 Grande 4393 GRUMBERG ROBERT M/30-39 01:15:51
701 Grande 134 GLINNE AUDREY JAMES F/30-39 01:15:52
702 Grande 4100 BAIJOT AMANDINE TITAN F/30-39 01:15:57
703 Grande 5256 MUCHERY RAPHAELLE MICHOTTE F/30-39 01:16:02
704 Grande 4562 PIRAUX DOMINIQUE JAMES M/60-69 01:16:04
705 Grande 1523 DUSSART JEAN-PIERRE M/70-+ 01:16:06
706 Grande 5120 GILLES FRANCOISE ESM F/60-69 01:16:06
707 Grande 5140 TENAY ZAGOR M/40-49 01:16:07
708 Grande 4925 VANDECLISSE MAXIME JCPMFMONT ST GUIBERT M/40-49 01:16:09
709 Grande 5283 TENGROOTENHUYSE OLIVIER M/50-59 01:16:09
710 Grande 5397 JANSSENSWILLEN SYLVIE F/40-49 01:16:12
711 Grande 1421 GOENS LINDA OEH F/60-69 01:16:13
712 Grande 2922 WERRES MARC M/50-59 01:16:18
713 Grande 4332 MANSY MICHELE AXA TEAM F/50-59 01:16:21
714 Grande 854 RAMOISY ISABELLE MICHOTTE F/40-49 01:16:27
715 Grande 2743 KEIMEUL CATHERINE ROS F/50-59 01:16:29
716 Grande 820 HASTRAY THIERRY ROS M/50-59 01:16:30
717 Grande 5261 SIMON ESMERALDA F/40-49 01:16:34
718 Grande 2708 MAERTEN EMILIE JET F/30-39 01:16:36
719 Grande 1703 GOUDMAEKER CLAUDE JE COURS A INCOURT M/60-69 01:16:37
720 Grande 872 LAGAERT RITA JET F/60-69 01:16:39
721 Grande 5295 URSI PHILIP MICHOTTE M/30-39 01:16:41
722 Grande 1230 PARMESAN SANDRO TRAINING 7 -RIWA M/50-59 01:16:44
723 Grande 317 KIN GEORGES RCB M/70-+ 01:16:45
724 Grande 713 LECOCQ MICHELE AXA TEAM F/50-59 01:16:47
725 Grande 3870 MATHIEU DIDIER M/50-59 01:16:51
726 Grande 5147 VANDEWEERDE SOPHIE JCPMF GENAPPE F/40-49 01:16:53
727 Grande 789 REMY NOELLE SPT WAVRE F/30-39 01:16:55
728 Grande 1961 GUILMAIN JEAN LDLV M/60-69 01:16:55
729 Grande 1207 BALOSSIER DOMINIQUE NAC F/40-49 01:16:57
730 Grande 4280 MABIL DIDIER WPRC M/60-69 01:16:57
731 Grande 2545 VARVENNE ERIC M/50-59 01:16:59
732 Grande 979 LETOR SIMON M/20-29 01:17:03
733 Grande 216 ROBERT MAURICE M/60-69 01:17:05
734 Grande 3903 HOYOIS MATHEO CSF M/15-19 01:17:14
735 Grande 3676 CAVIGNAC GUY JAMES M/50-59 01:17:15
736 Grande 97 BOUDART VIRGINIE JAMES F/40-49 01:17:17
737 Grande 53 COOSEMANS ISABELLE JET F/40-49 01:17:19
738 Grande 5419 BAISSON VERONIQUE JCPMFWALHAIN F/30-39 01:17:21
739 Grande 869 BROZE KATHY NAC F/50-59 01:17:21
740 Grande 3090 VOTQUENNE BARBARA NAC F/30-39 01:17:24
741 Grande 1775 DEGRAEVE HILDE RUN4VILLERS F/50-59 01:17:25
742 Grande 3592 MALIKIAN SILVA CSF F/40-49 01:17:26
743 Grande 853 VAN SICHELEN VIRGINIE CFS F/50-59 01:17:27
744 Grande 5205 MERTENS CAROLE F/40-49 01:17:28
745 Grande 5248 FRAU FABIENNE F/40-49 01:17:32
746 Grande 2459 GONZALEZ JOSE KURISTO M/70-+ 01:17:35
747 Grande 562 MOORS LAURENCE JCPMFORME F/30-39 01:17:36
748 Grande 5281 VANDEPOORTE NATHALIS ZATEAM F/50-59 01:17:37
749 Grande 5223 SEBILLE MELISA JCPMF SOMBREFFE F/30-39 01:17:40
750 Grande 3147 DUPUIS LAURENCE JTP BLANCS GILETS F/50-59 01:17:40
751 Grande 227 BAIKRICH GUY RCB M/70-+ 01:17:41
752 Grande 4108 BATAILLE MANON RUNNIN GREZ F/20-29 01:17:43
753 Grande 5467 SCHUMGERS NICOLAS MICHOTTE M/40-49 01:17:48
754 Grande 353 DEHON CHANTAL F/40-49 01:17:59
755 Grande 3565 DE SALLE CORENTIN M/40-49 01:18:04
756 Grande 701 RENDERS LUC JE COURS A INCOURT M/50-59 01:18:05
757 Grande 3471 SCHEPENS MARC USBW ROAD TEAM M/50-59 01:18:10
758 Grande 4804 NAZIR NABILA F/30-39 01:18:11
759 Grande 4755 PESCE MICHA M/50-59 01:18:17
760 Grande 5178 DOMINIQUE JACOBS MICHOTTE F/50-59 01:18:19
761 Grande 1441 CROONENBORGHS ANNICK JCPMF GENAPPE F/50-59 01:18:22
762 Grande 2040 VAN DE VIJVERE ANN JAMES F/40-49 01:18:23
763 Grande 3104 SAE HOUER PIERRE M/30-39 01:18:24
764 Grande 654 SEL FABIENNE ESM F/50-59 01:18:26
765 Grande 546 PENING CHRISTIAN NAC M/70-+ 01:18:30
766 Grande 1106 DUPUIS BENOIT JAMES M/60-69 01:18:31
767 Grande 1126 BABYLAS JOCELYNE JCPMFRAMILLIES F/40-49 01:18:39
768 Grande 1606 LE LIEVRE FREDDY KURISTO M/60-69 01:18:41
769 Grande 5233 STAMOS THEODORA ENJAMBEE F/50-59 01:18:46
770 Grande 535 CICCARELLI SOUMINA F/40-49 01:18:52
771 Grande 568 MUSEUR CHRISTOPHE M/30-39 01:18:53
772 Grande 4019 LUYCKX AUDREY JAMES F/20-29 01:18:56
773 Grande 467 BURTON THUYEN F/40-49 01:18:58
774 Grande 4715 GARCIA PALOMA JOG GAST F/50-59 01:18:58
775 Grande 824 ROLAND HUBERT M/50-59 01:19:00
776 Grande 1740 CHARLIER VERONIQUE JAMES F/50-59 01:19:02
777 Grande 825 TOULEC THIERRY M/50-59 01:19:04
778 Grande 3479 CLARYS ANGELIQUE JCPMFMONT ST GUIBERT F/50-59 01:19:08
779 Grande 2917 LACROIX FLORENCE JCPMF GENAPPE F/40-49 01:19:10
780 Grande 4819 VANBAELEN BERENGERE JCPMFMONT ST GUIBERT F/40-49 01:19:11
781 Grande 1151 DE BACKER FRANCOISE TRAINING 7 -RIWA F/50-59 01:19:14
782 Grande 708 HOMBRAIN JEAN MARC RUN4VILLERS M/50-59 01:19:15
783 Grande 5285 DE FRU DELPHINE JCPMFMONT ST GUIBERT F/40-49 01:19:19
784 Grande 5109 CHATEM DJAOUIDA ENJAMBEE F/40-49 01:19:21
785 Grande 24 TROIA GIOVANNA ENJAMBEE F/50-59 01:19:24
786 Grande 989 POLOME MANON MICHOTTE F/20-29 01:19:26
787 Grande 5454 VAN ROYE FREDERIC M/30-39 01:19:28
788 Grande 5453 BERTHET ANNE F/30-39 01:19:29
789 Grande 2425 CALLENS VALERIE RUNNINCLUB F/50-59 01:19:30
790 Grande 760 POLOME ALAIN M/60-69 01:19:32
791 Grande 860 AUTEQUITTE BENEDICTE ROS F/50-59 01:19:41
792 Grande 2548 LEGROS SYLVIE JE COURS A INCOURT F/40-49 01:19:41
793 Grande 5279 LEFEVER INNE ZATEAM F/30-39 01:19:42
794 Grande 15 ADAMS FABIENNE F/40-49 01:19:44
795 Grande 1327 BLEUS XAVIER KURISTO M/40-49 01:19:45
796 Grande 5294 BAIWY NICOLAS M/60-69 01:19:47
797 Grande 1033 GROSSEN YVES TEND DET M/70-+ 01:19:48
798 Grande 2025 THOMAS STEPHANIE JCPMF GENAPPE F/30-39 01:19:49
799 Grande 5163 CAPIZZI LAORA MICHOTTE F/15-19 01:19:50
800 Grande 3817 LOUIS PHILIPPE RESC M/50-59 01:19:53
801 Grande 451 PASO BERENGERE JCPMFMONT ST GUIBERT F/30-39 01:19:58
802 Grande 3635 HENNUY ODILE JAMES F/50-59 01:20:00
803 Grande 1981 DEFRETIN MARIE-HELENE JAMES F/40-49 01:20:00
804 Grande 3597 WAYEMBERGH JULIE RUNNIN GREZ F/40-49 01:20:05
805 Grande 754 POSTI JOCELYNE AXA TEAM F/60-69 01:20:08
806 Grande 5430 THIRIFAYS JACQUES THIRIFAYS TEAM M/60-69 01:20:15
807 Grande 365 GOFFAUX LAURENCE JAMES F/50-59 01:20:16
808 Grande 5138 SEFFER ROMAIN M/40-49 01:20:16
809 Grande 740 MAUHIN ANNE JAMES F/30-39 01:20:18
810 Grande 4117 BROHEZ BRUNO M/50-59 01:20:20
811 Grande 5441 BONFANTI MARIO M/60-69 01:20:22
812 Grande 3035 HOCK FRANCOISE JAMES F/50-59 01:20:22
813 Grande 1417 SERRE HEIDI JAMES F/50-59 01:20:23
814 Grande 2767 DETRY DELPHINE F/50-59 01:20:28
815 Grande 4880 VAN CAENEGHEM VIRGINIE JCPMFMONT ST GUIBERT F/50-59 01:20:29
816 Grande 839 VANDERLIN CHARL?NE NAC F/20-29 01:20:30
817 Grande 2565 GEULETTE NATHALIE F/50-59 01:20:30
818 Grande 5249 BOGEART LUC MICHOTTE M/60-69 01:20:32
819 Grande 5219 SEVERIN FRANCA ESM F/50-59 01:20:33
820 Grande 164 MARZULLO GIROLAMO M/50-59 01:20:33
821 Grande 973 ARCHEN CELINE F/30-39 01:20:35
822 Grande 3151 FEUILLAT GENEVIEVE USBW ROAD TEAM F/60-69 01:20:35
823 Grande 5172 FODIL FERIAL MICHOTTE F/40-49 01:20:37
824 Grande 5218 LAUWAERTS CHRISTIAN M/60-69 01:20:37
825 Grande 4042 SCALAIS DOMINIQUE JAMES F/40-49 01:20:41
826 Grande 5271 POTY DELPHINE ESM F/30-39 01:20:43
827 Grande 3047 JOPPART CHRISTINA LA BANDE A BONO F/40-49 01:20:44
828 Grande 990 MORRIS NICOLA-ELIZABETH ENJAMBEE F/60-69 01:20:47
829 Grande 5433 LA FERLA EMMA MICHOTTE F/30-39 01:20:50
830 Grande 5275 ZELICHOWSKA KASIA MICHOTTE F/30-39 01:20:50
831 Grande 5234 DELVILLE ALICE F/50-59 01:20:52
832 Grande 797 VAN VRECKEN FREDERIK M/40-49 01:20:52
833 Grande 3450 TAVERNE VERONIQUE ENJAMBEE F/50-59 01:20:53
834 Grande 718 LERSON SOPHIE F/30-39 01:20:53
835 Grande 3966 PRESTIE GIOVANNI BJB M/60-69 01:20:55
836 Grande 876 DELBROUCK CATHERINE F/50-59 01:20:57
837 Grande 364 HUON PIERRE RCB M/60-69 01:21:01
838 Grande 2624 FEYAERTS MARC JE COURS A INCOURT M/60-69 01:21:01
839 Grande 5213 FORTIN ANNE ENJAMBEE F/50-59 01:21:05
840 Grande 612 BAMPS NANCY FLEURUS F/40-49 01:21:09
841 Grande 445 NOPERE GENEVIEVE F/50-59 01:21:23
842 Grande 491 VAN VOOREN ROHAN M/40-49 01:21:27
843 Grande 5409 VAN LANGENDONCK ISABELLE F/40-49 01:21:30
844 Grande 591 ALAIME SEBASTIEN SPT WAVRE M/40-49 01:21:31
845 Grande 3018 HAESENNE NATHALIE JCPMFMONT ST GUIBERT F/40-49 01:21:32
846 Grande 5182 LIEVYNS CHRISTINE ESM F/50-59 01:21:34
847 Grande 5184 FRANCQ NATHALIE ESM F/50-59 01:21:36
848 Grande 5260 MELE ELIO M/50-59 01:21:37
849 Grande 695 EVRARD LUC M/60-69 01:21:39
850 Grande 5201 DEBBAUT ANN ZATEAM F/50-59 01:21:41
851 Grande 1241 KEYMOLEN ROGER JC OETINGEN M/60-69 01:21:44
852 Grande 2840 THIBAUT THIERRY JET M/50-59 01:21:46
853 Grande 5437 FLOSSIE KRIS ZATEAM F/50-59 01:21:49
854 Grande 1410 COOREMAN CHRISTOPHE JCPMFMONT ST GUIBERT M/40-49 01:21:59
855 Grande 4791 PLETINCKX DIMITRI M/40-49 01:22:00
856 Grande 3643 VELGHE CLAUDE M/50-59 01:22:02
857 Grande 1070 VAN LAETHEM GUY TRAINING 7 -RIWA M/50-59 01:22:03
858 Grande 315 COSTER SOPHIE F/30-39 01:22:05
859 Grande 5134 ROBEYNS ADRIENNE F/40-49 01:22:08
860 Grande 816 HERION ERIC M/40-49 01:22:17
861 Grande 1045 PAULUS MARC JC OETINGEN M/60-69 01:22:19
862 Grande 1437 BAWIN BRIGITTE JAMES F/60-69 01:22:20
863 Grande 1736 GROGNET SONIA JAMES F/50-59 01:22:21
864 Grande 752 PEEMANS JULIE RCB F/40-49 01:22:23
865 Grande 5400 SYMOENS NATHALIE MICHOTTE F/50-59 01:22:26
866 Grande 425 MARCHAL VIRGINIE GSKFUNCLUB F/30-39 01:22:28
867 Grande 105 HUPPE STEPHANE RONVAU M/60-69 01:22:30
868 Grande 895 BEDDA NEZHA MICHOTTE F/40-49 01:22:31
869 Grande 707 HECHT ETIENNE LDLV M/50-59 01:22:32
870 Grande 4088 HALILI MIMOZA F/20-29 01:22:38
871 Grande 4781 DE LATTER LAURENCE LA BANDE A BONO F/40-49 01:22:44
872 Grande 5444 ES PAULINE NAC F/30-39 01:22:47
873 Grande 2059 BARRETTO REBECAN JE COURS A INCOURT F/40-49 01:22:51
874 Grande 195 POELMAN LAURE F/30-39 01:22:59
875 Grande 5293 DEGAVRE CAROLINE MICHOTTE F/40-49 01:23:01
876 Grande 5292 VOS KARINE VERTIGO F/40-49 01:23:02
877 Grande 5118 ELSEN WYVINE F/40-49 01:23:03
878 Grande 5267 MONFORT STEPHANIE F/30-39 01:23:04
879 Grande 5408 VAN LAETHEM CLOTILDE MICHOTTE F/40-49 01:23:07
880 Grande 2804 REY NANCY F/50-59 01:23:11
881 Grande 2518 LEKEUX JEAN-MARIE NAC M/60-69 01:23:14
882 Grande 5117 DUGAUQUIER MIKE M/40-49 01:23:18
883 Grande 3505 BORSUS ELISABETH TRAINING 7 -RIWA F/30-39 01:23:25
884 Grande 2150 BARREA GENEVIEVE JCPMFORME F/50-59 01:23:25
885 Grande 806 GILBERT DIDIER USBW ROAD TEAM M/40-49 01:23:29
886 Grande 5473 VANDELSLANDER RINUS M/50-59 01:23:32
887 Grande 2470 HAUTECOEUR WIVINE NAC F/50-59 01:23:35
888 Grande 877 MARCHAND DIDIER M/50-59 01:23:39
889 Grande 3575 VANDEN BORRE EMILE TRAINING 7 -RIWA M/70-+ 01:23:50
890 Grande 963 HEMELEERS MARIE SPVI F/60-69 01:23:54
891 Grande 4200 LEFEVRE ISABELLE JAMES F/40-49 01:23:57
892 Grande 922 SMETS MARIE PIERRE RUNNIN GREZ F/50-59 01:23:58
893 Grande 1002 LAUNAY VIRGINIE TRAINING 7 -RIWA F/50-59 01:24:00
894 Grande 4356 MASSIGNANI CATHY JAMES F/40-49 01:24:01
895 Grande 456 BLAFFART PHILIPPE M/60-69 01:24:07
896 Grande 2073 DE POTTER BENOIT CS DYLE M/60-69 01:24:10
897 Grande 5414 MOUTTEAU PHILIPPE COATCHING M/50-59 01:24:21
898 Grande 2679 DE BERDT PATRICIA SPT WAVRE F/60-69 01:24:25
899 Grande 2783 NOWAK BERENGERE WPRC F/40-49 01:24:28
900 Grande 4056 BASSOULET JEAN CLAUDE JC THIMEON M/70-+ 01:24:29
901 Grande 4927 GILSON SOPHIE WPRC F/40-49 01:24:31
902 Grande 101 DEGLE STEVE VERTIGO M/40-49 01:24:32
903 Grande 4194 LAMY ERIC JAMES M/60-69 01:24:34
904 Grande 617 CONTE PAOLO M/50-59 01:24:35
905 Grande 3896 CESCHIN GIUSEPPE NAC M/60-69 01:24:41
906 Grande 3504 DANDOY AURELIE TRAINING 7 -RIWA F/30-39 01:24:46
907 Grande 1764 GUSBIN CATHY SWIFT F/50-59 01:24:47
908 Grande 2170 VANDROOGENBROECK STEPHANE M/50-59 01:24:54
909 Grande 2659 DELHAYE JEAN-CHARLES FRANCKYS TEAM M/50-59 01:25:02
910 Grande 1434 RAES AURELIE F/30-39 01:25:11
911 Grande 3789 MICHEL MURIEL NAC F/50-59 01:25:14
912 Grande 3179 VERSCHAAFFEL CATHERINE RUNNIN GREZ F/50-59 01:25:15
913 Grande 767 TRULLEMANS PASCALE F/50-59 01:25:17
914 Grande 349 DE PELSEMAEKER JEAN-LOUIS M/60-69 01:25:18
915 Grande 5238 DUMONT PASCALE F/50-59 01:25:26
916 Grande 4856 GERARD DOMINIQUE F/50-59 01:25:33
917 Grande 3589 GILLIOT ALAIN JCPMFMONT ST GUIBERT M/50-59 01:25:40
918 Grande 3478 MARROYEN CHRISTEL F/40-49 01:25:45
919 Grande 4811 LEPAGE CHRISTINE USBW ROAD TEAM F/40-49 01:25:46
920 Grande 2704 JOSCHKO BIRGIT USBW ROAD TEAM F/40-49 01:25:49
921 Grande 5269 BOGHMANS MARYSE F/40-49 01:26:00
922 Grande 5235 STEFANESCU IOANA F/40-49 01:26:01
923 Grande 5268 BOGHMANS CHRISTINE JCPMFORME F/50-59 01:26:01
924 Grande 5263 BELLIS ROBERT JAMES M/30-39 01:26:06
925 Grande 621 DABOMPREZ NICOLAS M/40-49 01:26:09
926 Grande 680 DEMORTIER CAROLINE F/30-39 01:26:09
927 Grande 3448 DESMET NADINE ANIMAUX EN PERIL F/50-59 01:26:12
928 Grande 1006 PHILIPPON JEAN PAUL ANIMAUX EN PERIL M/60-69 01:26:12
929 Grande 5231 VERSTICHEL KARIN MICHOTTE F/50-59 01:26:19
930 Grande 5141 TERLINDEN KLAUS M/70-+ 01:26:23
931 Grande 3509 FLAMAND VALERIE AXA TEAM F/50-59 01:26:25
932 Grande 919 GENOT BENOIT M/50-59 01:26:44
933 Grande 495 VANCOMPERNOLLE TINE TUBIZE RUN F/30-39 01:26:51
934 Grande 3000 LALLEMAND BERNADETTE JTP BLANCS GILETS F/50-59 01:26:54
935 Grande 4729 CLINCKART CORINNE F/50-59 01:26:55
936 Grande 4728 RADELET ERIC M/50-59 01:26:57
937 Grande 1199 VANHUFFELEN JOSSELINE AXA TEAM F/60-69 01:27:01
938 Grande 4855 DANN WILLIAM M/40-49 01:27:03
939 Grande 2244 TCHEKEMIAN NICOLE ROS F/70-+ 01:27:03
940 Grande 4699 DENIS SABINE F/40-49 01:27:06
941 Grande 1572 DE MUNCK VERONIQUE NAC F/50-59 01:27:10
942 Grande 1244 LEMPEREUR BERNADETTE KURISTO F/60-69 01:27:12
943 Grande 2665 MEEREMANS IVAN JC OETINGEN M/60-69 01:27:13
944 Grande 4776 FACON VINCENT KURISTO M/40-49 01:27:14
945 Grande 4879 DE CONINCK PATRICIA JCPMFMONT ST GUIBERT F/50-59 01:27:16
946 Grande 2732 WILLIAMS PAUL RUNNIN GREZ M/40-49 01:27:17
947 Grande 3835 ANTOINE CATHERINE JCPMFBRAINE F/40-49 01:27:18
948 Grande 557 LABAR DELPHINNE F/40-49 01:27:18
949 Grande 1086 VANHANDENHOVE DOMINIQUE F/50-59 01:27:28
950 Grande 66 SYMONS PETRO NAC M/60-69 01:27:34
951 Grande 505 SEGGIO PINO NAC M/70-+ 01:27:38
952 Grande 1300 KAUFMANN ALAIN JOGGANS M/60-69 01:27:42
953 Grande 5131 NGUYEN THI THU THUY F/60-69 01:27:49
954 Grande 154 PENNINCK DOMINIQUE KURISTO M/60-69 01:27:51
955 Grande 3309 PENING MAUD NAC F/40-49 01:27:52
956 Grande 793 CUSSAC PATRICK WPRC M/50-59 01:27:55
957 Grande 1210 BINARD CAROLINE JAMES F/40-49 01:27:55
958 Grande 3959 MICCICHE MARIA BJB F/50-59 01:27:57
959 Grande 471 SADDOUKI CHAHRAZADE JCPMF GENAPPE F/40-49 01:28:11
960 Grande 99 BOUSSAKLATAN NORDEN JCPMF GENAPPE M/50-59 01:28:14
961 Grande 5462 PIRRCHA GAETANA MICHOTTE F/40-49 01:28:14
962 Grande 646 SCHMITT DOMINIQUE JTP BLANCS GILETS F/40-49 01:28:18
963 Grande 984 LETERME ISABELLE F/40-49 01:28:20
964 Grande 2937 JACQUEMIN DOMINIQUE JOGGANS F/40-49 01:28:21
965 Grande 5443 NEUMANN ISABELLE COATCHING F/30-39 01:28:25
966 Grande 5162 RENDERS ANNE ENJAMBEE F/60-69 01:28:25
967 Grande 4126 MARTIN PIERRE TRAINING 7 -RIWA M/60-69 01:28:27
968 Grande 991 POLLE CAROLL ANTILOB F/50-59 01:28:28
969 Grande 1869 BUYENS JOHAN BAV M/70-+ 01:28:29
970 Grande 840 CLAES VINCENT M/50-59 01:28:31
971 Grande 847 VANDERBECQ ARIANE F/40-49 01:28:31
972 Grande 5270 VAN ELSLANDE PATRICIA USBW ROAD TEAM F/50-59 01:28:33
973 Grande 1433 MAUS MADELEINE NAC F/60-69 01:28:33
974 Grande 4023 MAILLEUX SANDRA USBW ROAD TEAM F/50-59 01:28:33
975 Grande 207 GILLES ALAIN JODOIGNE M/70-+ 01:28:37
976 Grande 452 PLATEAU CATHERINE F/40-49 01:28:46
977 Grande 324 DALL ALBA ROXANE F/40-49 01:28:49
978 Grande 886 VANDROOGENBROECK NINA MICHOTTE F/20-29 01:28:56
979 Grande 161 DUVIVIER CHRISTINE JAMES F/50-59 01:29:02
980 Grande 5474 BARKANI RACHIDA F/50-59 01:29:04
981 Grande 634 NICOLAY MICHELLE FLEURUS F/40-49 01:29:13
982 Grande 5106 BULTYNCK AURELIE F/40-49 01:29:22
983 Grande 5130 NAVEAU SOPHIE F/40-49 01:29:22
984 Grande 811 BABETTE MARIE MICHOTTE F/20-29 01:29:25
985 Grande 980 COURTAIN VIRGINIE MICHOTTE F/50-59 01:29:48
986 Grande 88 DOSSIN CHANTAL JCPMF GENAPPE F/50-59 01:29:52
987 Grande 4018 DUMONT BRIGITTE JCPMF GENAPPE F/50-59 01:29:53
988 Grande 3036 DE BOE ANNE WPRC F/60-69 01:29:54
989 Grande 5191 SOUZA SANTOS MILLA MICHOTTE F/40-49 01:30:23
990 Grande 5215 CAPIZZI ERICA MICHOTTE F/30-39 01:30:32
991 Grande 2943 JAUNIAUX CHANTAL RCB F/60-69 01:30:39
992 Grande 758 ROUBY XAVIER M/40-49 01:30:39
993 Grande 440 ROBINET BERNARD RCB M/60-69 01:30:40
994 Grande 822 BAUDOUX VERONIQUE F/40-49 01:31:08
995 Grande 878 SOMVILLE ISABELLE F/40-49 01:31:09
996 Grande 998 NGUYEN GAEL MICHOTTE M/40-49 01:31:18
997 Grande 692 DUPONT MARIE F/30-39 01:31:36
998 Grande 5239 HARNETT ELLA MICHOTTE F/20-29 01:31:38
999 Grande 479 STERCKVAL NATHALIE F/40-49 01:31:38
1000 Grande 4003 FIRQUET FRANCOISE F/60-69 01:31:42
1001 Grande 4448 DUBUISSON BRIGITTE F/50-59 01:31:42
1002 Grande 5243 BONAVENTURE ERIC MICHOTTE M/50-59 01:32:00
1003 Grande 1667 DEHAYE ANNE JAMES F/40-49 01:32:07
1004 Grande 2725 VANDER BAUWHEDE HILDE F/60-69 01:32:10
1005 Grande 2578 JANSSEN PHILIPPE BERLINUS M/60-69 01:32:21
1006 Grande 2304 FRENNET NATHALIE JAMES F/40-49 01:32:27
1007 Grande 3673 DEVREUX SOPHIE F/50-59 01:32:34
1008 Grande 4 MALAISE AMANDINE RCB F/30-39 01:32:38
1009 Grande 3897 SECRET LAURENCE JAMES F/50-59 01:32:44
1010 Grande 5395 VERHOEVEN GERALDINE NAC F/40-49 01:33:01
1011 Grande 2869 GAIGNAGE ISABELLE NAC F/50-59 01:33:04
1012 Grande 3866 GUIOT NATHALIE F/50-59 01:33:10
1013 Grande 745 GENOT YVES ENJAMBEE M/60-69 01:33:10
1014 Grande 3178 PETRY CATHERINE CABW F/40-49 01:33:13
1015 Grande 147 DE GROOT REGINE JCPMF GENAPPE F/50-59 01:33:24
1016 Grande 3508 BOLAIN NANCY TRAINING 7 -RIWA F/50-59 01:33:30
1017 Grande 3741 QUERTAINMONT PHILIPPE TRAINING 7 -RIWA M/70-+ 01:33:34
1018 Grande 1891 EVRARD JOSIANNE TRAINING 7 -RIWA F/60-69 01:33:36
1019 Grande 5246 VALLES CLARA MICHOTTE F/15-19 01:33:39
1020 Grande 3064 BROGNIET FRANCOIS JAMES M/50-59 01:33:54
1021 Grande 1001 HORVATH CHRISTOPHE MICHOTTE M/20-29 01:33:59
1022 Grande 3075 CORSI MASSIMO M/50-59 01:34:06
1023 Grande 5469 VALLE RAMIREZ MARIA JOGGANS F/40-49 01:34:22
1024 Grande 911 ALBERT TRISTAN JTP BLANCS GILETS M/15-19 01:34:57
1025 Grande 5411 HEUSER ANNA F/15-19 01:35:01
1026 Grande 4447 DEMORTIER JEAN-FRANCOIS JAMES M/50-59 01:35:10
1027 Grande 823 VANDEREYD ERIC JTP BLANCS GILETS M/60-69 01:35:12
1028 Grande 2721 SWAELENS NATHALIE RUNNIN GREZ F/40-49 01:35:41
1029 Grande 4945 BERTRAND NATHALIE RUNNIN GREZ F/50-59 01:35:43
1030 Grande 704 GARIN VERONIQUE F/50-59 01:36:12
1031 Grande 5148 VANTON CAROLINE F/40-49 01:36:27
1032 Grande 890 LEPARLIER PHILIPPE MICHOTTE M/60-69 01:36:38
1033 Grande 2984 DEVILLERS SOPHIE JAMES F/40-49 01:37:12
1034 Grande 5460 LEEMAN CATY LDLV F/50-59 01:37:22
1035 Grande 830 JANSSENS LAURA JCPMFORME F/15-19 01:37:39
1036 Grande 1861 MAHY SYLVIE JET F/50-59 01:38:08
1037 Grande 3017 PIERARD VALERIE F/50-59 01:38:25
1038 Grande 5286 CORFERS ELODIE MICHOTTE F/20-29 01:39:15
1039 Grande 23 ALEXANDRE PASCAL JC THIMEON M/60-69 01:40:26
1040 Grande 354 DELACROIX LAETITIA F/30-39 01:40:33
1041 Grande 357 GALASTRO FORTUNATA JCPMF GENAPPE F/40-49 01:40:55
1042 Grande 3499 VAN BOXMEER JO?LLE JET F/50-59 01:42:14
1043 Grande 1162 MUNIZ DULCE RCB F/60-69 01:43:01
1044 Grande 396 LEGRAND CHRISTINE F/50-59 01:45:26
1045 Grande 5244 POINT VALENTINE F/20-29 01:45:31
1046 Grande 3861 JACOBS CLAUDINE BJB F/60-69 01:46:17
1047 Grande 3630 WAUTHIER CHANTAL JCPMF GENAPPE F/60-69 01:48:07
1048 Grande 1357 MORTIER FREDERIC CACE M/40-49 01:52:44
1049 Grande 904 KEVERS SENIOR JEAN FRANCOIS NAC M/70-+ 01:52:45
1050 Grande 2762 DE FRE HANS LASMELMOL M/50-59 01:53:00
1051 Grande 5165 DE PAUW GUY M/70-+ 01:53:00
1052 Grande 1192 PALUMBO SALVATORE KURISTO M/70-+ 01:53:00
1053 Grande 5155 LETEUL CELINE F/40-49 01:53:00
1054 Grande 481 BEBE ARLETTE RCB F/70-+ 01:53:00
1055 Grande 1864 BORGWALD LUDWIG KAPSALONLUC M/60-69 01:53:00
1056 Grande 674 DE MEES MARC HOOIBERGLOPERS M/70-+ 01:53:00
1057 Grande 412 MONTERO PIERRE AXA TEAM M/50-59 01:53:00
1058 Grande 1205 LUYCKX JOKE HOOIBERGLOPERS F/60-69 01:53:00
1059 Grande 1252 DEBUSSCHER ANNE RUNNIN GREZ F/50-59 01:53:00
1060 Grande 98 DEBRUYNE CHRISTOPHE AXA TEAM M/40-49 01:53:00
1061 Grande 5214 ORPHANIDIS EVELYNE F/60-69 01:53:00
1062 Grande 742 VAN STEENWINKEL RITA SPVI F/60-69 01:53:00
1063 Grande 613 BEBE JANICK RCB F/50-59 01:53:00
1064 Grande 435 MEGANCK JEAN ANTILOB M/60-69 01:53:00
1065 Grande 1788 HAINE MARIE JOSE KAPSALONLUC F/50-59 01:53:00
1066 Grande 584 VANACKERE ERIK ANTILOB M/50-59 01:53:00
1067 Grande 5176 SUTTON MICHELLE F/40-49 01:53:00
1068 Grande 377 BEBE JEAN-ALFRED RCB M/70-+ 01:53:00
1069 Grande 407 FINE PAUL RCB M/60-69 01:53:00
1070 Grande 2715 PIRCAK VERONIQUE JE COURS A INCOURT F/40-49 01:53:00
1071 Grande 22 DENIS MARCEL M/70-+ 01:53:00
1072 Grande 764 LORAUX ETIENNE AXA TEAM M/50-59 01:53:00
1073 Grande 1661 COUTELLIER MARIE LOUISE ESM F/60-69 01:53:00
1074 Grande 480 JOURET ANDREE RCB F/70-+ 01:53:00
1075 Grande 38 PLETINCKX MARTINE CEPAL F/60-69 01:53:00
1076 Grande 1783 VLAMINCK ANDRE ESM M/60-69 01:53:00
1077 Grande 3440 GRAVY ISABELLE ANTILOB F/60-69 01:53:00
1078 Grande 5156 BRUTOUX VIRGINIE F/40-49 01:53:00
1079 Grande 1389 NACKOM PASCALE JCPMF GENAPPE F/50-59 01:53:00
1080 Grande 2857 STROOBANTS PAUL SPVI M/70-+ 01:53:00
1081 Grande 5164 LAGAST DOMINIQUE F/50-59 01:53:00